createdAt,value
2023-03-22T00:02:46.342Z,4.83
2023-03-22T00:05:33.907Z,4.07
2023-03-22T00:08:21.367Z,4.97
2023-03-22T00:11:09.637Z,4.73
2023-03-22T00:13:59.010Z,5.23
2023-03-22T00:16:47.416Z,6.13
2023-03-22T00:19:34.952Z,5.40
2023-03-22T00:22:22.466Z,5.50
2023-03-22T00:25:11.096Z,4.70
2023-03-22T00:27:58.560Z,5.17
2023-03-22T00:31:00.168Z,4.90
2023-03-22T00:33:47.609Z,4.77
2023-03-22T00:36:38.018Z,4.87
2023-03-22T00:39:27.098Z,5.03
2023-03-22T00:42:14.590Z,5.07
2023-03-22T00:45:02.241Z,4.73
2023-03-22T00:47:49.666Z,5.67
2023-03-22T00:50:39.901Z,5.67
2023-03-22T00:53:29.322Z,5.57
2023-03-22T00:56:16.928Z,5.37
2023-03-22T00:59:05.635Z,4.83
2023-03-22T01:01:53.100Z,5.57
2023-03-22T01:04:49.961Z,5.73
2023-03-22T01:07:38.642Z,4.80
2023-03-22T01:10:26.461Z,5.10
2023-03-22T01:13:14.353Z,5.73
2023-03-22T01:16:03.101Z,5.37
2023-03-22T01:18:50.574Z,6.20
2023-03-22T01:21:38.027Z,7.27
2023-03-22T01:24:25.740Z,6.90
2023-03-22T01:27:13.175Z,6.10
2023-03-22T01:30:00.697Z,6.17
2023-03-22T01:32:48.173Z,5.13
2023-03-22T01:35:36.822Z,6.13
2023-03-22T01:38:24.311Z,5.93
2023-03-22T01:41:11.921Z,5.60
2023-03-22T01:44:19.546Z,6.10
2023-03-22T01:47:11.730Z,5.83
2023-03-22T01:49:59.196Z,5.03
2023-03-22T01:52:48.128Z,5.33
2023-03-22T01:55:37.029Z,4.57
2023-03-22T01:58:25.248Z,5.33
2023-03-22T02:01:13.191Z,6.37
2023-03-22T02:04:07.249Z,6.07
2023-03-22T02:06:55.736Z,4.70
2023-03-22T02:09:43.977Z,5.00
2023-03-22T02:13:09.326Z,3.63
2023-03-22T02:16:40.324Z,4.13
2023-03-22T02:20:13.746Z,4.60
2023-03-22T02:23:46.564Z,4.63
2023-03-22T02:26:52.245Z,5.00
2023-03-22T02:29:54.736Z,5.53
2023-03-22T02:33:21.028Z,5.17
2023-03-22T02:36:31.603Z,4.70
2023-03-22T02:39:47.988Z,6.53
2023-03-22T02:42:53.232Z,4.63
2023-03-22T02:46:07.633Z,6.57
2023-03-22T02:49:07.919Z,5.90
2023-03-22T02:52:33.308Z,6.23
2023-03-22T02:55:34.953Z,6.13
2023-03-22T02:58:45.878Z,6.10
2023-03-22T03:01:46.438Z,5.57
2023-03-22T03:04:43.763Z,5.40
2023-03-22T03:07:31.951Z,5.10
2023-03-22T03:10:21.244Z,5.30
2023-03-22T03:13:18.193Z,5.73
2023-03-22T03:16:08.304Z,6.13
2023-03-22T03:19:55.958Z,5.33
2023-03-22T03:22:57.632Z,5.93
2023-03-22T03:26:10.595Z,5.67
2023-03-22T03:29:11.434Z,5.03
2023-03-22T03:32:28.478Z,5.33
2023-03-22T03:35:27.512Z,5.80
2023-03-22T03:38:26.601Z,5.50
2023-03-22T03:41:22.175Z,5.67
2023-03-22T03:44:11.598Z,4.40
2023-03-22T03:47:00.098Z,5.27
2023-03-22T03:49:47.593Z,5.70
2023-03-22T03:52:35.779Z,5.70
2023-03-22T03:55:24.676Z,5.60
2023-03-22T03:58:12.226Z,4.73
2023-03-22T04:00:59.762Z,6.10
2023-03-22T04:03:50.839Z,5.97
2023-03-22T04:06:39.788Z,5.67
2023-03-22T04:09:32.059Z,5.77
2023-03-22T04:12:19.560Z,6.10
2023-03-22T04:15:08.516Z,5.50
2023-03-22T04:17:56.034Z,4.97
2023-03-22T04:20:49.552Z,4.93
2023-03-22T04:23:37.069Z,4.27
2023-03-22T04:26:26.667Z,5.60
2023-03-22T04:29:14.979Z,4.53
2023-03-22T04:32:06.033Z,5.60
2023-03-22T04:34:53.699Z,5.03
2023-03-22T04:37:43.189Z,3.90
2023-03-22T04:40:35.357Z,4.30
2023-03-22T04:43:23.059Z,4.93
2023-03-22T04:46:13.092Z,4.30
2023-03-22T04:49:01.341Z,4.70
2023-03-22T04:51:48.853Z,4.40
2023-03-22T04:54:37.582Z,4.37
2023-03-22T04:57:25.122Z,4.37
2023-03-22T05:00:13.434Z,3.63
2023-03-22T05:03:01.985Z,3.43
2023-03-22T05:05:57.880Z,3.83
2023-03-22T05:08:45.971Z,3.43
2023-03-22T05:11:33.875Z,3.80
2023-03-22T05:14:21.467Z,3.83
2023-03-22T05:17:09.896Z,4.70
2023-03-22T05:19:57.441Z,4.87
2023-03-22T05:22:45.513Z,3.10
2023-03-22T05:25:34.265Z,4.40
2023-03-22T05:28:22.529Z,5.83
2023-03-22T05:31:11.876Z,4.07
2023-03-22T05:33:59.433Z,4.70
2023-03-22T05:36:47.019Z,5.00
2023-03-22T05:39:34.676Z,3.73
2023-03-22T05:42:22.132Z,4.47
2023-03-22T05:45:10.716Z,5.33
2023-03-22T05:47:58.588Z,4.87
2023-03-22T05:50:46.336Z,4.73
2023-03-22T05:53:33.880Z,5.33
2023-03-22T05:56:24.414Z,4.97
2023-03-22T05:59:12.158Z,5.80
2023-03-22T06:01:59.662Z,4.37
2023-03-22T06:04:47.849Z,4.63
2023-03-22T06:07:35.439Z,5.63
2023-03-22T06:10:24.364Z,5.30
2023-03-22T06:13:11.949Z,6.23
2023-03-22T06:16:04.401Z,4.83
2023-03-22T06:18:51.947Z,5.47
2023-03-22T06:21:39.470Z,5.33
2023-03-22T06:24:27.015Z,4.77
2023-03-22T06:27:14.461Z,6.77
2023-03-22T06:30:02.060Z,5.27
2023-03-22T06:32:49.560Z,5.93
2023-03-22T06:35:37.246Z,4.67
2023-03-22T06:38:24.693Z,4.57
2023-03-22T06:41:13.064Z,3.97
2023-03-22T06:44:01.365Z,4.80
2023-03-22T06:46:48.893Z,4.23
2023-03-22T06:49:36.618Z,4.87
2023-03-22T06:52:24.145Z,4.63
2023-03-22T06:55:11.660Z,4.83
2023-03-22T06:57:59.978Z,3.90
2023-03-22T07:00:47.491Z,4.90
2023-03-22T07:03:34.983Z,5.60
2023-03-22T07:06:22.510Z,4.77
2023-03-22T07:09:10.530Z,5.20
2023-03-22T07:11:57.996Z,4.97
2023-03-22T07:14:45.541Z,4.87
2023-03-22T07:17:32.970Z,5.30
2023-03-22T07:20:20.829Z,4.13
2023-03-22T07:23:11.280Z,4.03
2023-03-22T07:26:01.111Z,4.47
2023-03-22T07:28:48.549Z,4.37
2023-03-22T07:31:36.706Z,5.33
2023-03-22T07:34:24.152Z,4.47
2023-03-22T07:37:11.686Z,5.00
2023-03-22T07:39:59.169Z,5.00
2023-03-22T07:42:50.007Z,4.60
2023-03-22T07:45:37.459Z,4.60
2023-03-22T07:48:25.181Z,3.87
2023-03-22T07:51:12.799Z,4.03
2023-03-22T07:54:01.887Z,3.93
2023-03-22T07:56:49.408Z,4.30
2023-03-22T07:59:39.899Z,4.13
2023-03-22T08:02:28.277Z,5.17
2023-03-22T08:05:15.925Z,4.97
2023-03-22T08:08:03.397Z,6.07
2023-03-22T08:10:51.689Z,4.80
2023-03-22T08:13:40.002Z,5.20
2023-03-22T08:16:27.840Z,4.95
2023-03-22T08:19:15.594Z,5.50
2023-03-22T08:22:03.786Z,6.17
2023-03-22T08:24:54.899Z,6.37
2023-03-22T08:27:42.354Z,5.90
2023-03-22T08:30:29.928Z,5.40
2023-03-22T08:33:17.881Z,5.43
2023-03-22T08:36:12.776Z,6.28
2023-03-22T08:39:01.552Z,5.00
2023-03-22T08:41:49.001Z,6.05
2023-03-22T08:44:36.927Z,6.30
2023-03-22T08:47:24.392Z,6.32
2023-03-22T08:50:13.075Z,5.60
2023-03-22T08:53:01.261Z,5.72
2023-03-22T08:55:48.811Z,5.60
2023-03-22T08:58:36.444Z,4.95
2023-03-22T09:01:24.548Z,5.00
2023-03-22T09:04:12.157Z,4.80
2023-03-22T09:06:59.559Z,5.50
2023-03-22T09:09:47.668Z,5.97
2023-03-22T09:12:35.372Z,5.00
2023-03-22T09:15:23.051Z,5.63
2023-03-22T09:18:11.698Z,5.43
2023-03-22T09:20:59.200Z,4.90
2023-03-22T09:23:48.027Z,6.85
2023-03-22T09:26:35.663Z,6.30
2023-03-22T09:29:23.137Z,5.93
2023-03-22T09:32:10.701Z,5.68
2023-03-22T09:34:58.149Z,6.18
2023-03-22T09:37:45.623Z,5.75
2023-03-22T09:40:35.801Z,5.95
2023-03-22T09:43:23.342Z,5.82
2023-03-22T09:46:18.625Z,5.70
2023-03-22T09:49:19.249Z,6.55
2023-03-22T09:52:17.524Z,5.88
2023-03-22T09:55:18.468Z,5.63
2023-03-22T09:58:47.939Z,6.13
2023-03-22T10:02:04.838Z,5.90
2023-03-22T10:05:13.112Z,6.13
2023-03-22T10:08:30.445Z,6.43
2023-03-22T10:11:47.472Z,6.07
2023-03-22T10:15:01.885Z,5.82
2023-03-22T10:17:56.082Z,5.85
2023-03-22T10:20:59.561Z,5.65
2023-03-22T10:24:00.861Z,4.70
2023-03-22T10:26:49.736Z,4.38
2023-03-22T10:29:46.588Z,5.07
2023-03-22T10:33:02.748Z,4.05
2023-03-22T10:35:53.165Z,4.75
2023-03-22T10:38:49.813Z,4.78
2023-03-22T10:41:38.425Z,4.53
2023-03-22T10:44:29.861Z,5.15
2023-03-22T10:47:29.863Z,4.55
2023-03-22T10:50:28.899Z,4.45
2023-03-22T10:53:39.838Z,4.10
2023-03-22T10:56:27.574Z,4.88
2023-03-22T10:59:51.812Z,5.10
2023-03-22T11:02:59.135Z,4.75
2023-03-22T11:06:14.145Z,4.90
2023-03-22T11:09:23.742Z,5.78
2023-03-22T11:12:13.475Z,5.32
2023-03-22T11:15:01.082Z,4.63
2023-03-22T11:17:49.345Z,4.57
2023-03-22T11:20:54.350Z,4.50
2023-03-22T11:23:52.234Z,4.18
2023-03-22T11:26:41.937Z,4.90
2023-03-22T11:29:39.138Z,4.40
2023-03-22T11:32:37.100Z,4.90
2023-03-22T11:35:27.146Z,4.68
2023-03-22T11:38:37.991Z,4.55
2023-03-22T11:41:32.450Z,4.30
2023-03-22T11:44:23.145Z,4.68
2023-03-22T11:47:14.180Z,3.42
2023-03-22T11:50:09.328Z,3.85
2023-03-22T11:53:01.725Z,4.22
2023-03-22T11:55:53.124Z,4.13
2023-03-22T11:59:04.227Z,3.90
2023-03-22T12:02:15.146Z,4.63
2023-03-22T12:05:11.198Z,4.10
2023-03-22T12:08:20.958Z,3.72
2023-03-22T12:11:25.394Z,3.75
2023-03-22T12:14:34.791Z,3.30
2023-03-22T12:17:56.586Z,4.00
2023-03-22T12:21:01.220Z,3.78
2023-03-22T12:23:48.873Z,3.65
2023-03-22T12:26:37.747Z,4.05
2023-03-22T12:29:27.669Z,4.25
2023-03-22T12:32:25.901Z,3.83
2023-03-22T12:35:25.680Z,3.85
2023-03-22T12:38:31.178Z,4.00
2023-03-22T12:41:41.061Z,3.60
2023-03-22T12:44:40.422Z,3.78
2023-03-22T12:47:42.778Z,3.20
2023-03-22T12:51:00.869Z,3.85
2023-03-22T12:53:55.051Z,3.15
2023-03-22T12:56:46.693Z,3.50
2023-03-22T12:59:34.316Z,3.78
2023-03-22T13:02:35.986Z,3.92
2023-03-22T13:05:32.183Z,3.95
2023-03-22T13:08:22.509Z,3.92
2023-03-22T13:11:24.349Z,4.03
2023-03-22T13:14:53.186Z,3.80
2023-03-22T13:17:45.180Z,3.42
2023-03-22T13:20:34.208Z,3.38
2023-03-22T13:23:28.406Z,3.53
2023-03-22T13:26:16.407Z,4.07
2023-03-22T13:29:17.633Z,3.30
2023-03-22T13:32:33.498Z,3.72
2023-03-22T13:35:38.220Z,3.60
2023-03-22T13:38:41.058Z,3.92
2023-03-22T13:41:37.041Z,3.75
2023-03-22T13:44:36.333Z,3.60
2023-03-22T13:47:44.834Z,3.67
2023-03-22T13:50:34.617Z,3.20
2023-03-22T13:53:30.759Z,3.50
2023-03-22T13:56:57.184Z,3.55
2023-03-22T14:00:22.372Z,3.50
2023-03-22T14:03:40.837Z,4.80
2023-03-22T14:06:35.404Z,3.58
2023-03-22T14:09:36.451Z,3.28
2023-03-22T14:12:48.223Z,4.00
2023-03-22T14:15:45.341Z,3.33
2023-03-22T14:18:37.198Z,2.92
2023-03-22T14:21:36.759Z,3.67
